createdAt,value
2019-05-19T00:00:02.957Z,22.17
2019-05-19T00:01:38.005Z,22.13
2019-05-19T00:03:12.277Z,20.52
2019-05-19T00:04:47.487Z,19.75
2019-05-19T00:06:21.713Z,21.60
2019-05-19T00:07:56.520Z,20.90
2019-05-19T00:09:30.789Z,19.57
2019-05-19T00:11:05.883Z,22.80
2019-05-19T00:12:40.081Z,21.05
2019-05-19T00:14:14.653Z,25.30
2019-05-19T00:15:48.908Z,27.40
2019-05-19T00:17:24.778Z,29.37
2019-05-19T00:18:59.003Z,21.70
2019-05-19T00:20:33.792Z,22.90
2019-05-19T00:22:08.084Z,21.48
2019-05-19T00:23:42.980Z,18.35
2019-05-19T00:25:17.229Z,20.68
2019-05-19T00:26:52.057Z,19.77
2019-05-19T00:28:26.292Z,24.92
2019-05-19T00:30:01.376Z,19.65
2019-05-19T00:31:35.664Z,18.37
2019-05-19T00:33:10.612Z,19.62
2019-05-19T00:34:44.922Z,20.57
2019-05-19T00:36:20.868Z,19.10
2019-05-19T00:37:55.143Z,21.57
2019-05-19T00:39:29.985Z,21.00
2019-05-19T00:41:04.200Z,22.37
2019-05-19T00:42:39.551Z,20.40
2019-05-19T00:44:13.803Z,18.92
2019-05-19T00:45:48.631Z,23.77
2019-05-19T00:47:22.957Z,19.23
2019-05-19T00:48:58.658Z,24.65
2019-05-19T00:50:32.868Z,21.27
2019-05-19T00:52:07.709Z,20.88
2019-05-19T00:53:41.933Z,24.90
2019-05-19T00:55:16.915Z,21.87
2019-05-19T00:56:51.664Z,21.95
2019-05-19T00:58:27.925Z,20.72
2019-05-19T01:00:03.619Z,21.48
2019-05-19T01:01:38.459Z,30.12
2019-05-19T01:03:12.692Z,20.90
2019-05-19T01:04:47.861Z,19.37
2019-05-19T01:06:23.556Z,23.32
2019-05-19T01:07:58.760Z,21.25
2019-05-19T01:09:33.054Z,23.62
2019-05-19T01:11:07.948Z,19.42
2019-05-19T01:12:42.259Z,22.48
2019-05-19T01:14:17.440Z,25.48
2019-05-19T01:15:51.680Z,21.33
2019-05-19T01:17:26.549Z,19.70
2019-05-19T01:19:00.780Z,25.48
2019-05-19T01:20:36.220Z,22.42
2019-05-19T01:22:11.566Z,20.37
2019-05-19T01:23:46.333Z,21.73
2019-05-19T01:25:20.564Z,24.02
2019-05-19T01:26:57.293Z,20.77
2019-05-19T01:28:32.916Z,21.85
2019-05-19T01:30:09.860Z,21.50
2019-05-19T01:31:44.091Z,20.77
2019-05-19T01:33:19.206Z,19.77
2019-05-19T01:34:53.425Z,22.45
2019-05-19T01:36:28.284Z,20.25
2019-05-19T01:38:02.519Z,20.52
2019-05-19T01:39:37.776Z,21.82
2019-05-19T01:41:12.005Z,21.62
2019-05-19T01:42:46.861Z,26.27
2019-05-19T01:44:21.200Z,23.70
2019-05-19T01:45:56.341Z,20.40
2019-05-19T01:47:30.541Z,30.30
2019-05-19T01:49:05.083Z,30.40
2019-05-19T01:50:39.348Z,39.03
2019-05-19T01:52:14.749Z,32.58
2019-05-19T01:53:48.967Z,45.60
2019-05-19T01:55:23.745Z,32.73
2019-05-19T01:56:58.021Z,39.30
2019-05-19T01:58:33.096Z,41.42
2019-05-19T02:00:09.188Z,35.70
2019-05-19T02:01:44.005Z,30.08
2019-05-19T02:03:18.298Z,28.65
2019-05-19T02:04:53.615Z,34.92
2019-05-19T02:06:27.846Z,30.48
2019-05-19T02:08:03.028Z,32.10
2019-05-19T02:09:37.280Z,32.60
2019-05-19T02:11:12.296Z,33.02
2019-05-19T02:12:46.522Z,27.07
2019-05-19T02:14:21.303Z,31.25
2019-05-19T02:15:55.570Z,37.85
2019-05-19T02:17:30.674Z,31.95
2019-05-19T02:19:05.305Z,29.67
2019-05-19T02:20:40.128Z,30.50
2019-05-19T02:22:14.388Z,27.17
2019-05-19T02:23:49.549Z,28.62
2019-05-19T02:25:24.136Z,29.48
2019-05-19T02:26:58.910Z,31.42
2019-05-19T02:28:33.144Z,36.35
2019-05-19T02:30:10.287Z,26.17
2019-05-19T02:31:44.513Z,23.92
2019-05-19T02:33:19.329Z,27.48
2019-05-19T02:34:53.561Z,22.60
2019-05-19T02:36:28.643Z,26.55
2019-05-19T02:38:02.872Z,24.52
2019-05-19T02:39:37.680Z,28.42
2019-05-19T02:41:14.764Z,25.52
2019-05-19T02:42:51.921Z,24.35
2019-05-19T02:44:27.421Z,22.45
2019-05-19T02:46:02.562Z,23.20
2019-05-19T02:47:38.398Z,24.10
2019-05-19T02:49:14.343Z,24.65
2019-05-19T02:50:52.725Z,23.83
2019-05-19T02:52:28.992Z,26.12
2019-05-19T02:54:06.198Z,21.27
2019-05-19T02:55:41.784Z,25.32
2019-05-19T02:57:17.189Z,25.48
2019-05-19T02:58:53.558Z,23.85
2019-05-19T03:00:36.522Z,25.60
2019-05-19T03:02:12.760Z,24.90
2019-05-19T03:03:47.069Z,23.38
2019-05-19T03:05:21.928Z,22.80
2019-05-19T03:06:56.153Z,26.95
2019-05-19T03:08:31.106Z,20.20
2019-05-19T03:10:06.361Z,22.10
2019-05-19T03:11:41.204Z,26.10
2019-05-19T03:13:15.439Z,21.68
2019-05-19T03:14:50.499Z,20.02
2019-05-19T03:16:24.726Z,24.07
2019-05-19T03:17:59.521Z,20.45
2019-05-19T03:19:33.799Z,19.95
2019-05-19T03:21:11.544Z,22.15
2019-05-19T03:22:44.895Z,21.77
2019-05-19T03:24:20.173Z,22.75
2019-05-19T03:25:54.710Z,20.70
2019-05-19T03:27:30.010Z,24.07
2019-05-19T03:29:04.237Z,23.40
2019-05-19T03:30:43.126Z,24.75
2019-05-19T03:32:24.799Z,20.77
2019-05-19T03:34:01.482Z,19.90
2019-05-19T03:35:35.710Z,22.48
2019-05-19T03:37:10.615Z,21.82
2019-05-19T03:38:44.848Z,21.33
2019-05-19T03:40:21.095Z,19.95
2019-05-19T03:41:55.766Z,16.23
2019-05-19T03:43:30.541Z,19.52
2019-05-19T03:45:05.662Z,22.67
2019-05-19T03:46:40.694Z,18.85
2019-05-19T03:48:14.961Z,21.80
2019-05-19T03:49:49.837Z,17.52
2019-05-19T03:51:31.081Z,19.52
2019-05-19T03:53:00.901Z,19.42
2019-05-19T03:54:36.645Z,17.67
2019-05-19T03:56:11.432Z,18.37
2019-05-19T03:57:46.086Z,15.70
2019-05-19T03:59:21.463Z,19.05
2019-05-19T04:00:55.709Z,22.98
2019-05-19T04:02:30.491Z,18.27
2019-05-19T04:04:04.724Z,14.87
2019-05-19T04:05:39.892Z,15.95
2019-05-19T04:07:14.122Z,11.35
2019-05-19T04:08:48.965Z,12.20
2019-05-19T04:10:23.185Z,11.97
2019-05-19T04:11:58.264Z,13.62
2019-05-19T04:13:32.498Z,16.27
2019-05-19T04:15:07.773Z,15.75
2019-05-19T04:16:42.011Z,11.70
2019-05-19T04:18:17.147Z,12.23
2019-05-19T04:19:51.456Z,17.30
2019-05-19T04:21:26.225Z,11.57
2019-05-19T04:23:00.457Z,12.88
2019-05-19T04:24:38.582Z,12.10
2019-05-19T04:26:12.861Z,11.48
2019-05-19T04:27:48.217Z,11.68
2019-05-19T04:29:22.429Z,12.78
2019-05-19T04:30:57.469Z,10.40
2019-05-19T04:32:31.687Z,11.15
2019-05-19T04:34:07.050Z,11.05
2019-05-19T04:35:41.353Z,9.65
2019-05-19T04:37:16.758Z,9.20
2019-05-19T04:38:50.969Z,12.50
2019-05-19T04:40:25.721Z,8.90
2019-05-19T04:41:59.933Z,12.47
2019-05-19T04:43:35.234Z,9.48
2019-05-19T04:45:10.537Z,9.33
2019-05-19T04:46:45.306Z,11.22
2019-05-19T04:48:19.506Z,8.85
2019-05-19T04:49:54.627Z,14.50
2019-05-19T04:51:28.832Z,9.75
2019-05-19T04:53:03.653Z,8.85
2019-05-19T04:54:37.930Z,9.00
2019-05-19T04:56:12.896Z,9.73
2019-05-19T04:57:47.095Z,9.70
2019-05-19T04:59:23.370Z,11.15
2019-05-19T05:00:57.582Z,11.90
2019-05-19T05:02:32.804Z,7.40
2019-05-19T05:04:06.994Z,11.00
2019-05-19T05:05:41.808Z,6.33
2019-05-19T05:07:16.061Z,8.65
2019-05-19T05:08:51.482Z,7.58
2019-05-19T05:10:25.682Z,9.58
2019-05-19T05:12:00.529Z,10.58
2019-05-19T05:13:34.731Z,11.30
2019-05-19T05:15:10.362Z,8.13
2019-05-19T05:16:44.640Z,8.28
2019-05-19T05:18:19.406Z,8.53
2019-05-19T05:19:53.705Z,8.18
2019-05-19T05:21:28.836Z,7.22
2019-05-19T05:23:03.048Z,11.12
2019-05-19T05:24:37.848Z,6.45
2019-05-19T05:26:12.044Z,8.05
2019-05-19T05:27:47.209Z,8.45
2019-05-19T05:29:21.538Z,9.45
2019-05-19T05:30:56.837Z,7.75
2019-05-19T05:32:31.117Z,9.28
2019-05-19T05:34:06.209Z,8.78
2019-05-19T05:35:40.428Z,13.62
2019-05-19T05:37:15.232Z,7.78
2019-05-19T05:38:49.439Z,10.40
2019-05-19T05:40:26.201Z,7.20
2019-05-19T05:42:00.408Z,7.65
2019-05-19T05:43:35.217Z,12.37
2019-05-19T05:45:10.325Z,10.60
2019-05-19T05:46:45.588Z,7.00
2019-05-19T05:48:19.832Z,9.00
2019-05-19T05:49:54.739Z,9.35
2019-05-19T05:51:28.915Z,8.08
2019-05-19T05:53:03.871Z,9.10
2019-05-19T05:54:38.191Z,8.60
2019-05-19T05:56:13.014Z,7.50
2019-05-19T05:57:47.333Z,10.72
2019-05-19T05:59:22.652Z,10.28
2019-05-19T06:00:56.855Z,8.93
2019-05-19T06:02:32.010Z,9.85
2019-05-19T06:04:06.352Z,12.95
2019-05-19T06:05:41.544Z,9.20
2019-05-19T06:07:15.747Z,9.43
2019-05-19T06:08:50.512Z,8.98
2019-05-19T06:10:24.777Z,14.55
2019-05-19T06:11:59.894Z,11.53
2019-05-19T06:13:34.124Z,12.15
2019-05-19T06:15:08.944Z,9.85
2019-05-19T06:16:43.197Z,13.90
2019-05-19T06:18:18.669Z,12.20
2019-05-19T06:19:52.870Z,10.50
2019-05-19T06:21:27.636Z,9.50
2019-05-19T06:23:01.897Z,7.37
2019-05-19T06:24:37.050Z,10.32
2019-05-19T06:26:11.263Z,8.58
2019-05-19T06:27:46.057Z,10.70
2019-05-19T06:29:20.265Z,11.68
2019-05-19T06:30:55.722Z,9.93
2019-05-19T06:32:31.665Z,9.18
2019-05-19T06:34:06.538Z,8.28
2019-05-19T06:35:40.757Z,10.43
2019-05-19T06:37:15.724Z,8.80
2019-05-19T06:38:50.027Z,9.13
2019-05-19T06:40:24.796Z,8.20
2019-05-19T06:41:59.425Z,11.95
2019-05-19T06:43:34.306Z,14.70
2019-05-19T06:45:10.124Z,10.53
2019-05-19T06:46:44.891Z,8.85
2019-05-19T06:48:20.294Z,6.00
2019-05-19T06:49:55.248Z,12.07
2019-05-19T06:51:29.444Z,6.90
2019-05-19T06:53:13.624Z,8.83
2019-05-19T06:54:40.107Z,5.35
2019-05-19T06:56:15.039Z,7.05
2019-05-19T06:57:49.313Z,7.62
2019-05-19T06:59:24.080Z,5.92
2019-05-19T07:00:59.256Z,7.10
2019-05-19T07:02:34.638Z,5.53
2019-05-19T07:04:08.849Z,8.93
2019-05-19T07:05:43.633Z,8.65
2019-05-19T07:07:17.891Z,6.72
2019-05-19T07:08:52.769Z,6.35
2019-05-19T07:10:26.972Z,7.15
2019-05-19T07:12:01.752Z,7.10
2019-05-19T07:13:36.002Z,9.35
2019-05-19T07:15:11.995Z,7.35
2019-05-19T07:16:46.205Z,6.72
2019-05-19T07:18:20.962Z,7.28
2019-05-19T07:19:55.722Z,8.93
2019-05-19T07:21:30.671Z,7.35
2019-05-19T07:23:04.918Z,7.60
2019-05-19T07:24:39.690Z,11.10
2019-05-19T07:26:13.900Z,5.05
2019-05-19T07:27:48.821Z,9.03
2019-05-19T07:29:23.031Z,8.43
2019-05-19T07:30:57.843Z,10.28
2019-05-19T07:32:32.029Z,7.42
2019-05-19T07:34:07.097Z,6.53
2019-05-19T07:35:41.552Z,7.28
2019-05-19T07:37:16.409Z,9.25
2019-05-19T07:38:50.682Z,7.47
2019-05-19T07:40:25.679Z,8.00
2019-05-19T07:41:59.894Z,5.72
2019-05-19T07:43:34.650Z,7.25
2019-05-19T07:45:09.558Z,5.67
2019-05-19T07:46:44.884Z,5.65
2019-05-19T07:48:19.077Z,5.58
2019-05-19T07:49:53.848Z,10.93
2019-05-19T07:51:28.111Z,9.60
2019-05-19T07:53:03.348Z,9.30
2019-05-19T07:54:37.544Z,7.78
2019-05-19T07:56:12.311Z,8.80
2019-05-19T07:57:46.571Z,5.83
2019-05-19T07:59:21.719Z,7.70
2019-05-19T08:00:55.923Z,10.50
2019-05-19T08:02:31.284Z,7.72
2019-05-19T08:04:05.499Z,6.60
2019-05-19T08:05:40.595Z,7.60
2019-05-19T08:07:15.110Z,8.30
2019-05-19T08:08:49.915Z,9.38
2019-05-19T08:10:24.192Z,6.50
2019-05-19T08:11:59.207Z,5.87
2019-05-19T08:13:33.443Z,38.58
2019-05-19T08:15:08.886Z,8.90
2019-05-19T08:16:43.040Z,8.15
2019-05-19T08:18:18.042Z,6.90
2019-05-19T08:19:52.244Z,7.55
2019-05-19T08:21:26.814Z,4.10
2019-05-19T08:23:01.095Z,11.28
2019-05-19T08:24:36.116Z,5.35
2019-05-19T08:26:10.326Z,8.23
2019-05-19T08:27:45.206Z,4.72
2019-05-19T08:29:19.418Z,7.75
2019-05-19T08:30:54.376Z,10.90
2019-05-19T08:32:28.625Z,13.53
2019-05-19T08:34:03.520Z,9.50
2019-05-19T08:35:37.692Z,9.33
2019-05-19T08:37:12.751Z,13.53
2019-05-19T08:38:47.009Z,10.80
2019-05-19T08:40:22.783Z,10.35
2019-05-19T08:41:57.032Z,8.50
2019-05-19T08:43:32.039Z,11.70
2019-05-19T08:45:09.744Z,9.60
2019-05-19T08:46:44.507Z,12.47
2019-05-19T08:48:18.705Z,10.82
2019-05-19T08:49:53.810Z,9.05
2019-05-19T08:51:28.049Z,11.35
2019-05-19T08:53:02.870Z,12.47
2019-05-19T08:54:37.137Z,10.28
2019-05-19T08:56:11.807Z,8.50
2019-05-19T08:57:46.017Z,10.53
2019-05-19T08:59:20.849Z,12.95
2019-05-19T09:00:55.107Z,10.55
2019-05-19T09:02:30.125Z,10.63
2019-05-19T09:04:04.385Z,9.25
2019-05-19T09:05:39.157Z,9.75
2019-05-19T09:07:13.373Z,9.58
2019-05-19T09:08:48.136Z,9.93
2019-05-19T09:10:22.388Z,9.80
2019-05-19T09:11:57.159Z,5.45
2019-05-19T09:13:31.440Z,6.37
2019-05-19T09:15:07.208Z,4.53
2019-05-19T09:16:41.496Z,7.83
2019-05-19T09:18:16.265Z,4.60
2019-05-19T09:19:50.542Z,8.33
2019-05-19T09:21:25.562Z,4.17
2019-05-19T09:23:02.180Z,2.75
2019-05-19T09:24:37.459Z,5.80
2019-05-19T09:26:11.759Z,6.92
2019-05-19T09:27:46.980Z,6.15
2019-05-19T09:29:21.195Z,5.72
2019-05-19T09:30:55.954Z,6.62
2019-05-19T09:32:30.273Z,7.62
2019-05-19T09:34:05.357Z,5.17
2019-05-19T09:35:39.572Z,4.37
2019-05-19T09:37:14.342Z,4.20
2019-05-19T09:38:48.982Z,5.22
2019-05-19T09:40:26.660Z,5.30
2019-05-19T09:41:59.890Z,4.37
2019-05-19T09:43:34.729Z,4.85
2019-05-19T09:45:09.935Z,6.35
2019-05-19T09:46:45.065Z,6.58
2019-05-19T09:48:19.275Z,5.33
2019-05-19T09:49:54.059Z,6.03
2019-05-19T09:51:28.366Z,4.42
2019-05-19T09:53:03.376Z,6.25
2019-05-19T09:54:45.426Z,3.62
2019-05-19T09:56:13.992Z,7.03
2019-05-19T09:57:48.248Z,6.00
2019-05-19T09:59:23.241Z,11.48
2019-05-19T10:00:57.491Z,7.03
2019-05-19T10:02:32.267Z,6.12
2019-05-19T10:04:07.185Z,5.30
2019-05-19T10:05:42.115Z,6.58
2019-05-19T10:07:17.507Z,6.33
2019-05-19T10:08:56.584Z,7.35
2019-05-19T10:11:07.681Z,8.55
2019-05-19T10:12:41.896Z,4.80
2019-05-19T10:14:16.660Z,3.40
2019-05-19T10:15:50.867Z,6.22
2019-05-19T10:17:26.120Z,8.38
2019-05-19T10:19:00.341Z,7.10
2019-05-19T10:20:35.160Z,4.42
2019-05-19T10:22:10.571Z,3.90
2019-05-19T10:23:46.425Z,6.03
2019-05-19T10:25:23.221Z,6.62
2019-05-19T10:26:58.344Z,3.35
2019-05-19T10:28:34.271Z,4.08
2019-05-19T10:30:11.369Z,7.20
2019-05-19T10:31:45.590Z,6.42
2019-05-19T10:33:20.366Z,5.35
2019-05-19T10:34:54.590Z,3.42
2019-05-19T10:36:29.841Z,7.17
2019-05-19T10:38:04.172Z,5.30
2019-05-19T10:39:40.469Z,3.08
2019-05-19T10:41:16.537Z,5.28
2019-05-19T10:42:53.084Z,7.00
2019-05-19T10:44:28.120Z,4.95
2019-05-19T10:46:02.906Z,4.97
2019-05-19T10:47:38.793Z,4.28
2019-05-19T10:49:13.863Z,4.08
2019-05-19T10:50:48.074Z,8.08
2019-05-19T10:52:24.320Z,5.65
2019-05-19T10:53:59.250Z,2.98
2019-05-19T10:55:37.197Z,3.30
2019-05-19T10:57:14.831Z,6.97
2019-05-19T10:58:49.370Z,5.95
2019-05-19T11:00:24.709Z,5.95
2019-05-19T11:02:00.001Z,4.15
2019-05-19T11:03:34.294Z,4.72
2019-05-19T11:05:11.224Z,6.97
2019-05-19T11:06:46.288Z,6.70
2019-05-19T11:08:21.355Z,6.45
2019-05-19T11:09:55.566Z,5.25
2019-05-19T11:11:30.342Z,5.95
2019-05-19T11:13:06.028Z,6.85
2019-05-19T11:14:41.163Z,5.78
2019-05-19T11:16:15.378Z,6.85
2019-05-19T11:17:50.233Z,10.72
2019-05-19T11:19:24.559Z,7.35
2019-05-19T11:20:59.936Z,5.08
2019-05-19T11:22:34.144Z,5.67
2019-05-19T11:24:08.905Z,6.15
2019-05-19T11:25:51.612Z,4.87
2019-05-19T11:27:25.411Z,5.87
2019-05-19T11:29:00.924Z,5.80
2019-05-19T11:30:35.757Z,5.00
2019-05-19T11:32:15.251Z,3.52
2019-05-19T11:33:51.326Z,5.08
2019-05-19T11:35:25.577Z,4.85
2019-05-19T11:37:03.204Z,5.03
2019-05-19T11:38:37.509Z,6.30
2019-05-19T11:40:13.594Z,6.85
2019-05-19T11:41:48.566Z,7.87
2019-05-19T11:43:23.426Z,9.88
2019-05-19T11:44:59.824Z,6.70
2019-05-19T11:46:35.938Z,7.17
2019-05-19T11:48:11.271Z,6.12
2019-05-19T11:49:47.278Z,8.00
2019-05-19T11:51:21.590Z,6.70
2019-05-19T11:52:56.684Z,7.33
2019-05-19T11:54:32.143Z,5.83
2019-05-19T11:56:10.993Z,8.05
2019-05-19T11:57:43.017Z,7.05
2019-05-19T11:59:19.858Z,10.50
2019-05-19T12:00:56.574Z,9.48
2019-05-19T12:02:31.101Z,6.85
2019-05-19T12:04:05.706Z,8.60
2019-05-19T12:05:41.917Z,5.58
2019-05-19T12:07:16.174Z,9.98
2019-05-19T12:08:50.951Z,8.60
2019-05-19T12:10:25.190Z,5.10
2019-05-19T12:12:00.698Z,6.58
2019-05-19T12:13:35.238Z,7.15
2019-05-19T12:15:11.209Z,6.05
2019-05-19T12:16:45.716Z,6.72
2019-05-19T12:18:20.681Z,6.60
2019-05-19T12:19:55.012Z,5.55
2019-05-19T12:21:29.850Z,8.65
2019-05-19T12:23:04.062Z,7.33
2019-05-19T12:24:38.959Z,8.40
2019-05-19T12:26:23.217Z,5.45
2019-05-19T12:27:51.202Z,7.45
2019-05-19T12:29:25.489Z,12.07
2019-05-19T12:31:01.506Z,7.33
2019-05-19T12:32:35.838Z,5.03
2019-05-19T12:34:10.649Z,5.70
2019-05-19T12:35:44.883Z,7.40
2019-05-19T12:37:20.140Z,4.62
2019-05-19T12:38:54.477Z,8.68
2019-05-19T12:40:32.049Z,5.55
2019-05-19T12:42:06.389Z,5.28
2019-05-19T12:43:41.458Z,8.75
2019-05-19T12:45:17.868Z,7.80
2019-05-19T12:46:52.646Z,5.12
2019-05-19T12:48:26.972Z,9.60
2019-05-19T12:50:02.395Z,6.90
2019-05-19T12:51:37.493Z,5.12
2019-05-19T12:53:12.332Z,4.25
2019-05-19T12:54:46.676Z,6.90
2019-05-19T12:56:21.781Z,6.35
2019-05-19T12:57:56.056Z,8.65
2019-05-19T12:59:30.816Z,8.68
2019-05-19T13:01:05.097Z,5.50
2019-05-19T13:02:40.251Z,6.95
2019-05-19T13:04:14.457Z,4.85
2019-05-19T13:05:49.265Z,6.00
2019-05-19T13:07:23.484Z,6.65
2019-05-19T13:08:58.417Z,7.37
2019-05-19T13:10:32.618Z,4.62
2019-05-19T13:12:07.413Z,5.65
2019-05-19T13:13:41.629Z,5.62
2019-05-19T13:15:17.496Z,5.22
2019-05-19T13:16:51.697Z,7.03
2019-05-19T13:18:26.502Z,4.30
2019-05-19T13:20:00.810Z,5.70
2019-05-19T13:21:35.872Z,3.72
2019-05-19T13:23:10.078Z,7.00
2019-05-19T13:24:44.952Z,9.23
2019-05-19T13:26:19.241Z,5.15
2019-05-19T13:27:54.197Z,6.03
2019-05-19T13:29:28.402Z,5.83
2019-05-19T13:31:03.292Z,6.10
2019-05-19T13:32:38.665Z,6.75
2019-05-19T13:34:13.434Z,4.00
2019-05-19T13:35:47.636Z,9.50
2019-05-19T13:37:22.452Z,3.87
2019-05-19T13:38:56.662Z,5.17
2019-05-19T13:40:31.796Z,5.42
2019-05-19T13:42:06.072Z,5.70
2019-05-19T13:43:40.888Z,4.03
2019-05-19T13:45:15.728Z,6.87
2019-05-19T13:46:50.702Z,5.20
2019-05-19T13:48:24.908Z,3.75
2019-05-19T13:49:59.813Z,4.50
2019-05-19T13:51:34.070Z,5.92
2019-05-19T13:53:09.151Z,3.87
2019-05-19T13:54:43.405Z,9.93
2019-05-19T13:56:18.176Z,6.00
2019-05-19T13:57:52.391Z,6.50
2019-05-19T13:59:27.627Z,6.17
2019-05-19T14:01:02.243Z,6.40
2019-05-19T14:02:37.056Z,6.22
2019-05-19T14:04:11.283Z,6.65
2019-05-19T14:05:46.296Z,9.43
2019-05-19T14:07:20.505Z,4.50
2019-05-19T14:08:55.312Z,7.97
2019-05-19T14:10:29.521Z,4.40
2019-05-19T14:12:04.519Z,5.78
2019-05-19T14:13:38.786Z,6.17
2019-05-19T14:15:14.057Z,6.42
2019-05-19T14:16:48.265Z,7.95
2019-05-19T14:18:23.253Z,5.72
2019-05-19T14:19:57.537Z,5.45
2019-05-19T14:21:32.398Z,6.60
2019-05-19T14:23:06.684Z,5.10
2019-05-19T14:24:41.926Z,6.42
2019-05-19T14:26:16.139Z,4.10
2019-05-19T14:27:50.936Z,6.00
2019-05-19T14:29:25.149Z,6.55
2019-05-19T14:30:59.890Z,9.15
2019-05-19T14:32:34.186Z,11.63
2019-05-19T14:34:08.990Z,6.70
2019-05-19T14:35:43.204Z,8.73
2019-05-19T14:37:18.159Z,7.17
2019-05-19T14:39:05.335Z,8.68
2019-05-19T14:40:38.165Z,5.60
2019-05-19T14:42:14.012Z,5.87
2019-05-19T14:43:49.027Z,6.05
2019-05-19T14:45:23.328Z,8.38
2019-05-19T14:46:58.124Z,7.67
2019-05-19T14:48:32.362Z,8.40
2019-05-19T14:50:08.003Z,6.45
2019-05-19T14:51:42.265Z,7.17
2019-05-19T14:53:17.989Z,9.68
2019-05-19T14:54:52.260Z,8.13
2019-05-19T14:56:27.297Z,5.20
2019-05-19T14:58:01.589Z,10.15
2019-05-19T14:59:36.434Z,7.00
2019-05-19T15:01:10.648Z,5.08
2019-05-19T15:02:45.647Z,6.95
2019-05-19T15:04:19.944Z,6.87
2019-05-19T15:05:54.790Z,5.72
2019-05-19T15:07:29.083Z,7.80
2019-05-19T15:09:04.852Z,8.95
2019-05-19T15:10:39.127Z,8.48
2019-05-19T15:12:13.918Z,5.55
2019-05-19T15:13:48.100Z,9.60
2019-05-19T15:15:23.532Z,9.45
2019-05-19T15:16:59.048Z,7.03
2019-05-19T15:18:35.706Z,12.80
2019-05-19T15:20:10.510Z,8.85
2019-05-19T15:21:45.483Z,9.93
2019-05-19T15:23:19.716Z,8.60
2019-05-19T15:24:54.538Z,9.80
2019-05-19T15:26:29.095Z,8.08
2019-05-19T15:28:05.408Z,9.98
2019-05-19T15:29:39.832Z,7.92
2019-05-19T15:31:14.360Z,9.05
2019-05-19T15:32:50.208Z,9.00
2019-05-19T15:34:25.518Z,10.53
2019-05-19T15:35:59.745Z,11.38
2019-05-19T15:37:34.588Z,8.33
2019-05-19T15:39:08.842Z,6.92
2019-05-19T15:40:44.070Z,8.38
2019-05-19T15:42:18.361Z,8.43
2019-05-19T15:43:53.129Z,9.00
2019-05-19T15:45:27.356Z,8.20
2019-05-19T15:47:02.653Z,8.15
2019-05-19T15:48:36.865Z,8.98
2019-05-19T15:50:11.839Z,11.15
2019-05-19T15:52:00.381Z,6.47
2019-05-19T15:53:23.071Z,6.78
2019-05-19T15:54:57.358Z,8.08
2019-05-19T15:56:32.124Z,9.33
2019-05-19T15:58:16.031Z,8.00
2019-05-19T15:59:43.386Z,12.18
2019-05-19T16:01:17.632Z,10.50
2019-05-19T16:02:52.381Z,7.15
2019-05-19T16:04:26.596Z,8.45
2019-05-19T16:06:01.776Z,6.45
2019-05-19T16:07:35.977Z,7.62
2019-05-19T16:09:10.830Z,5.42
2019-05-19T16:10:45.106Z,5.70
2019-05-19T16:12:20.141Z,5.35
2019-05-19T16:13:54.443Z,6.60
2019-05-19T16:15:29.207Z,5.92
2019-05-19T16:17:03.419Z,5.85
2019-05-19T16:18:38.624Z,7.58
2019-05-19T16:20:14.405Z,8.70
2019-05-19T16:21:49.177Z,4.45
2019-05-19T16:23:23.460Z,6.97
2019-05-19T16:24:58.810Z,8.53
2019-05-19T16:26:34.656Z,6.42
2019-05-19T16:28:09.425Z,6.87
2019-05-19T16:29:43.705Z,6.55
2019-05-19T16:31:18.950Z,7.47
2019-05-19T16:32:53.165Z,7.30
2019-05-19T16:34:27.939Z,8.60
2019-05-19T16:36:02.136Z,6.37
2019-05-19T16:37:37.063Z,7.62
2019-05-19T16:39:11.265Z,8.43
2019-05-19T16:40:46.033Z,9.80
2019-05-19T16:42:22.539Z,6.08
2019-05-19T16:43:57.531Z,6.28
2019-05-19T16:45:31.841Z,5.45
2019-05-19T16:47:06.784Z,7.83
2019-05-19T16:48:41.129Z,4.45
2019-05-19T16:50:16.278Z,6.28
2019-05-19T16:51:50.496Z,6.65
2019-05-19T16:53:25.308Z,11.53
2019-05-19T16:55:19.393Z,9.73
2019-05-19T16:56:54.157Z,8.55
2019-05-19T16:58:28.365Z,5.37
2019-05-19T17:00:03.282Z,8.35
2019-05-19T17:01:37.857Z,8.23
2019-05-19T17:03:12.655Z,8.13
2019-05-19T17:04:46.861Z,8.18
2019-05-19T17:06:21.704Z,7.12
2019-05-19T17:07:56.074Z,6.65
2019-05-19T17:09:30.841Z,4.65
2019-05-19T17:11:17.553Z,5.85
2019-05-19T17:12:41.553Z,7.58
2019-05-19T17:14:17.693Z,7.58
2019-05-19T17:15:52.516Z,7.90
2019-05-19T17:17:26.735Z,5.45
2019-05-19T17:19:02.068Z,5.40
2019-05-19T17:20:36.557Z,3.55
2019-05-19T17:22:11.318Z,5.28
2019-05-19T17:23:45.600Z,4.47
2019-05-19T17:25:20.418Z,6.17
2019-05-19T17:26:54.927Z,6.35
2019-05-19T17:28:29.769Z,3.17
2019-05-19T17:30:09.044Z,3.98
2019-05-19T17:31:44.420Z,5.58
2019-05-19T17:33:19.134Z,5.15
2019-05-19T17:34:53.973Z,5.12
2019-05-19T17:36:28.312Z,3.30
2019-05-19T17:38:03.161Z,4.42
2019-05-19T17:39:37.840Z,6.20
2019-05-19T17:41:13.721Z,4.22
2019-05-19T17:42:48.365Z,5.87
2019-05-19T17:44:23.164Z,10.32
2019-05-19T17:45:57.718Z,6.30
2019-05-19T17:47:32.568Z,7.40
2019-05-19T17:49:07.231Z,5.55
2019-05-19T17:50:41.774Z,6.28
2019-05-19T17:52:17.832Z,5.28
2019-05-19T17:53:53.463Z,8.70
2019-05-19T17:55:28.463Z,7.83
2019-05-19T17:57:05.868Z,7.03
2019-05-19T17:58:42.800Z,6.25
2019-05-19T18:00:21.618Z,5.55
2019-05-19T18:01:56.473Z,4.40
2019-05-19T18:03:31.053Z,5.97
2019-05-19T18:05:06.874Z,8.85
2019-05-19T18:06:41.123Z,8.10
2019-05-19T18:08:15.962Z,9.10
2019-05-19T18:09:51.710Z,18.80
2019-05-19T18:11:26.765Z,5.85
2019-05-19T18:13:00.993Z,5.92
2019-05-19T18:14:35.832Z,6.75
2019-05-19T18:16:11.615Z,9.68
2019-05-19T18:17:47.122Z,5.58
2019-05-19T18:19:24.612Z,6.25
2019-05-19T18:20:59.669Z,6.92
2019-05-19T18:22:34.668Z,6.10
2019-05-19T18:24:15.114Z,7.15
2019-05-19T18:25:49.372Z,5.37
2019-05-19T18:27:25.777Z,6.45
2019-05-19T18:29:00.094Z,6.35
2019-05-19T18:30:35.289Z,6.75
2019-05-19T18:32:09.629Z,4.67
2019-05-19T18:33:44.416Z,12.47
2019-05-19T18:35:21.133Z,7.00
2019-05-19T18:36:57.672Z,5.20
2019-05-19T18:38:31.923Z,6.92
2019-05-19T18:40:08.619Z,6.47
2019-05-19T18:41:42.833Z,6.35
2019-05-19T18:43:18.234Z,8.33
2019-05-19T18:44:52.573Z,5.78
2019-05-19T18:46:28.440Z,5.75
2019-05-19T18:48:02.715Z,9.25
2019-05-19T18:49:37.775Z,6.25
2019-05-19T18:51:12.089Z,5.50
2019-05-19T18:52:47.526Z,5.80
2019-05-19T18:54:21.804Z,5.85
2019-05-19T18:55:58.255Z,7.80
2019-05-19T18:57:33.985Z,7.35
2019-05-19T18:59:08.825Z,4.95
2019-05-19T19:00:43.105Z,3.55
2019-05-19T19:02:18.207Z,9.40
2019-05-19T19:03:53.785Z,8.98
2019-05-19T19:05:28.383Z,2.50
2019-05-19T19:07:04.221Z,6.75
2019-05-19T19:08:40.368Z,6.65
2019-05-19T19:10:16.425Z,4.47
2019-05-19T19:11:51.484Z,6.37
2019-05-19T19:13:25.753Z,5.37
2019-05-19T19:15:00.702Z,5.42
2019-05-19T19:16:35.031Z,4.28
2019-05-19T19:18:09.806Z,6.80
2019-05-19T19:19:44.157Z,4.50
2019-05-19T19:21:23.563Z,7.72
2019-05-19T19:22:58.521Z,3.80
2019-05-19T19:24:33.358Z,5.45
2019-05-19T19:26:09.102Z,8.45
2019-05-19T19:27:44.173Z,5.05
2019-05-19T19:29:18.395Z,5.67
2019-05-19T19:30:54.297Z,5.05
2019-05-19T19:32:28.620Z,5.00
2019-05-19T19:34:03.680Z,5.00
2019-05-19T19:35:39.554Z,5.40
2019-05-19T19:37:14.571Z,3.85
2019-05-19T19:38:48.776Z,5.65
2019-05-19T19:40:29.552Z,6.80
2019-05-19T19:42:03.798Z,3.47
2019-05-19T19:43:38.691Z,6.92
2019-05-19T19:45:13.016Z,5.35
2019-05-19T19:46:49.571Z,3.30
2019-05-19T19:48:26.873Z,3.65
2019-05-19T19:50:02.431Z,4.12
2019-05-19T19:51:36.640Z,7.30
2019-05-19T19:53:11.818Z,5.87
2019-05-19T19:54:46.146Z,4.22
2019-05-19T19:56:22.365Z,5.03
2019-05-19T19:57:56.573Z,5.25
2019-05-19T19:59:31.489Z,4.33
2019-05-19T20:01:05.729Z,4.60
2019-05-19T20:02:40.490Z,5.53
2019-05-19T20:04:14.775Z,6.97
2019-05-19T20:05:49.960Z,7.87
2019-05-19T20:07:24.236Z,6.53
2019-05-19T20:08:58.998Z,4.00
2019-05-19T20:10:33.238Z,3.83
2019-05-19T20:12:08.447Z,4.47
2019-05-19T20:13:42.661Z,4.25
2019-05-19T20:15:17.493Z,4.55
2019-05-19T20:16:51.766Z,3.98
2019-05-19T20:18:27.001Z,6.22
2019-05-19T20:20:01.210Z,4.37
2019-05-19T20:21:36.654Z,5.37
2019-05-19T20:23:10.917Z,5.37
2019-05-19T20:24:46.096Z,6.12
2019-05-19T20:26:20.307Z,3.50
2019-05-19T20:27:55.068Z,4.15
2019-05-19T20:29:29.320Z,5.60
2019-05-19T20:31:04.361Z,4.45
2019-05-19T20:32:38.565Z,8.75
2019-05-19T20:34:13.828Z,5.00
2019-05-19T20:35:48.076Z,3.33
2019-05-19T20:37:24.472Z,5.00
2019-05-19T20:38:58.676Z,2.25
2019-05-19T20:40:34.106Z,2.58
2019-05-19T20:42:08.430Z,3.90
2019-05-19T20:43:43.671Z,6.47
2019-05-19T20:45:17.981Z,7.12
2019-05-19T20:46:52.556Z,8.08
2019-05-19T20:48:26.776Z,7.95
2019-05-19T20:50:02.009Z,7.55
2019-05-19T20:51:36.366Z,10.72